KLM671 EHAM-CYUL
Flight info
| Callsign | KLM671 |
|---|---|
| Flight time | N/A |
| Altitude | 38000 |
| Route | BERGI L60 PENIL M144 BAGSO DCT ULTAG DCT DOGAL/M082F390 NATA ALLRY/N0466F400 N482C MIILS DCT TIBOS ROCKT3 |
| Aircraft | A332/H-SDE3GHIJ2J3J5M1RVWXY/LB2D1 |
Departure
| Time | 2026-04-30 09:43 |
|---|---|
| Airport | Amsterdam Airport Schiphol (EHAM) |
Arrival
| Time | N/A |
|---|---|
| Airport | Montreal / Pierre Elliott Trudeau International Airport (CYUL) |
| Time | Latitude | Longitude | Altitude | Speed | Heading |
|---|---|---|---|---|---|
| 2026-04-30 08:55 | 52.31377 | 4.76740 | 3 ft | 0 kts | 123° |
| 2026-04-30 09:34 | 52.31390 | 4.76712 | 3 ft | 4 kts | 133° |
| 2026-04-30 09:34 | 52.31399 | 4.76679 | 4 ft | 4 kts | 85° |
| 2026-04-30 09:34 | 52.31395 | 4.76639 | 4 ft | 4 kts | 89° |
| 2026-04-30 09:34 | 52.31394 | 4.76600 | 5 ft | 3 kts | 64° |
| 2026-04-30 09:35 | 52.31378 | 4.76570 | 4 ft | 4 kts | 32° |
| 2026-04-30 09:35 | 52.31371 | 4.76563 | 5 ft | 4 kts | 34° |
| 2026-04-30 09:37 | 52.31379 | 4.76571 | 4 ft | 3 kts | 34° |
| 2026-04-30 09:38 | 52.31406 | 4.76601 | 5 ft | 6 kts | 34° |
| 2026-04-30 09:38 | 52.31450 | 4.76647 | 3 ft | 8 kts | 34° |
| 2026-04-30 09:38 | 52.31472 | 4.76741 | 3 ft | 10 kts | 84° |
| 2026-04-30 09:38 | 52.31477 | 4.76863 | 3 ft | 12 kts | 87° |
| 2026-04-30 09:39 | 52.31481 | 4.77004 | 3 ft | 13 kts | 87° |
| 2026-04-30 09:39 | 52.31492 | 4.77158 | 3 ft | 13 kts | 64° |
| 2026-04-30 09:39 | 52.31560 | 4.77228 | 2 ft | 11 kts | 47° |
| 2026-04-30 09:39 | 52.31593 | 4.77340 | 2 ft | 11 kts | 62° |
| 2026-04-30 09:40 | 52.31637 | 4.77453 | 2 ft | 14 kts | 56° |
| 2026-04-30 09:40 | 52.31688 | 4.77582 | 2 ft | 13 kts | 57° |
| 2026-04-30 09:40 | 52.31759 | 4.77683 | 2 ft | 14 kts | 15° |
| 2026-04-30 09:40 | 52.31856 | 4.77699 | 2 ft | 14 kts | 4° |
| 2026-04-30 09:41 | 52.31958 | 4.77710 | 3 ft | 15 kts | 5° |
| 2026-04-30 09:41 | 52.32042 | 4.77783 | 3 ft | 14 kts | 35° |
| 2026-04-30 09:41 | 52.32111 | 4.77882 | 3 ft | 13 kts | 56° |
| 2026-04-30 09:41 | 52.32113 | 4.77997 | 3 ft | 6 kts | 128° |
| 2026-04-30 09:42 | 52.32073 | 4.78012 | 3 ft | 9 kts | 180° |
| 2026-04-30 09:42 | 52.31865 | 4.77992 | 2 ft | 58 kts | 183° |
| 2026-04-30 09:42 | 52.31285 | 4.77939 | 3 ft | 108 kts | 183° |
| 2026-04-30 09:42 | 52.30722 | 4.77887 | 1 ft | 136 kts | 183° |
| 2026-04-30 09:43 | 52.29663 | 4.77771 | 150 ft | 160 kts | 177° |
| 2026-04-30 09:43 | 52.28568 | 4.77663 | 692 ft | 156 kts | 181° |
| 2026-04-30 09:43 | 52.27219 | 4.78120 | 1339 ft | 156 kts | 155° |
| 2026-04-30 09:43 | 52.26532 | 4.78551 | 1570 ft | 164 kts | 152° |
| 2026-04-30 09:44 | 52.25429 | 4.79288 | 1932 ft | 179 kts | 153° |
| 2026-04-30 09:44 | 52.24208 | 4.80080 | 2218 ft | 200 kts | 154° |
| 2026-04-30 09:44 | 52.22802 | 4.80792 | 2511 ft | 223 kts | 160° |
| 2026-04-30 09:44 | 52.21239 | 4.81383 | 3025 ft | 235 kts | 166° |
| 2026-04-30 09:45 | 52.19597 | 4.81098 | 3847 ft | 249 kts | 194° |
| 2026-04-30 09:45 | 52.18179 | 4.79392 | 4554 ft | 268 kts | 227° |
| 2026-04-30 09:45 | 52.17501 | 4.76505 | 5289 ft | 283 kts | 263° |
| 2026-04-30 09:45 | 52.17784 | 4.73294 | 5948 ft | 292 kts | 291° |
| 2026-04-30 09:46 | 52.18853 | 4.70467 | 6683 ft | 295 kts | 305° |
| 2026-04-30 09:46 | 52.19883 | 4.67548 | 7401 ft | 299 kts | 296° |
| 2026-04-30 09:46 | 52.20699 | 4.64398 | 8095 ft | 304 kts | 290° |
| 2026-04-30 09:46 | 52.21356 | 4.61140 | 8786 ft | 308 kts | 286° |
| 2026-04-30 09:47 | 52.21931 | 4.57744 | 9507 ft | 313 kts | 284° |
| 2026-04-30 09:47 | 52.23157 | 4.53462 | 10397 ft | 314 kts | 317° |
| 2026-04-30 09:47 | 52.24288 | 4.51996 | 10695 ft | 316 kts | 334° |
| 2026-04-30 09:47 | 52.26314 | 4.50388 | 10994 ft | 331 kts | 340° |
| 2026-04-30 09:48 | 52.28461 | 4.48741 | 11263 ft | 350 kts | 337° |
| 2026-04-30 09:48 | 52.30653 | 4.46875 | 11528 ft | 367 kts | 335° |
| 2026-04-30 09:48 | 52.32921 | 4.44790 | 11905 ft | 378 kts | 333° |
| 2026-04-30 09:48 | 52.35195 | 4.42550 | 12460 ft | 384 kts | 329° |
| 2026-04-30 09:49 | 52.37540 | 4.40487 | 13075 ft | 382 kts | 345° |
| 2026-04-30 09:49 | 52.40139 | 4.39884 | 13689 ft | 377 kts | 4° |
| 2026-04-30 09:49 | 52.42768 | 4.39987 | 14292 ft | 379 kts | 5° |
| 2026-04-30 09:49 | 52.45420 | 4.39999 | 14810 ft | 383 kts | 2° |
| 2026-04-30 09:50 | 52.48063 | 4.39844 | 15324 ft | 386 kts | 1° |
| 2026-04-30 09:50 | 52.50761 | 4.39568 | 15858 ft | 390 kts | 359° |
| 2026-04-30 09:50 | 52.53481 | 4.39218 | 16370 ft | 393 kts | 359° |
| 2026-04-30 09:50 | 52.56225 | 4.38826 | 16876 ft | 396 kts | 359° |
| 2026-04-30 09:51 | 52.58982 | 4.38411 | 17390 ft | 399 kts | 358° |
| 2026-04-30 09:51 | 52.61757 | 4.37982 | 17879 ft | 402 kts | 358° |
| 2026-04-30 09:51 | 52.64515 | 4.37549 | 18375 ft | 405 kts | 358° |
| 2026-04-30 09:51 | 52.67336 | 4.37136 | 18835 ft | 407 kts | 1° |
| 2026-04-30 09:52 | 52.70172 | 4.36777 | 19211 ft | 411 kts | 1° |
| 2026-04-30 09:52 | 52.73033 | 4.36405 | 19611 ft | 413 kts | 3° |
| 2026-04-30 09:52 | 52.75908 | 4.36233 | 20002 ft | 417 kts | 359° |
| 2026-04-30 09:52 | 52.78747 | 4.34974 | 20387 ft | 427 kts | 341° |
| 2026-04-30 09:53 | 52.81295 | 4.32406 | 20825 ft | 434 kts | 324° |
| 2026-04-30 09:53 | 52.83359 | 4.28740 | 21236 ft | 440 kts | 308° |
| 2026-04-30 09:53 | 52.84771 | 4.24244 | 21664 ft | 444 kts | 291° |
| 2026-04-30 09:53 | 52.85410 | 4.19245 | 22083 ft | 446 kts | 275° |
| 2026-04-30 09:54 | 52.85187 | 4.14136 | 22510 ft | 447 kts | 257° |
| 2026-04-30 09:54 | 52.84343 | 4.09176 | 22914 ft | 448 kts | 253° |
| 2026-04-30 09:54 | 52.83633 | 4.04214 | 23292 ft | 451 kts | 261° |
| 2026-04-30 09:54 | 52.83393 | 3.99022 | 23644 ft | 454 kts | 271° |
| 2026-04-30 09:55 | 52.83673 | 3.93805 | 24017 ft | 456 kts | 280° |
| 2026-04-30 09:55 | 52.84341 | 3.88673 | 24356 ft | 456 kts | 286° |
| 2026-04-30 09:55 | 52.85243 | 3.83621 | 24654 ft | 459 kts | 289° |
| 2026-04-30 09:55 | 52.86263 | 3.78602 | 24934 ft | 461 kts | 290° |
| 2026-04-30 09:56 | 52.87312 | 3.73644 | 25224 ft | 463 kts | 291° |
| 2026-04-30 09:56 | 52.88377 | 3.68588 | 25464 ft | 466 kts | 290° |
| 2026-04-30 09:56 | 52.89426 | 3.63501 | 25820 ft | 467 kts | 290° |
| 2026-04-30 09:56 | 52.90452 | 3.58409 | 26153 ft | 468 kts | 289° |
| 2026-04-30 09:57 | 52.91470 | 3.53269 | 26451 ft | 469 kts | 289° |
| 2026-04-30 09:57 | 52.92475 | 3.48124 | 26796 ft | 470 kts | 289° |
| 2026-04-30 09:57 | 52.93479 | 3.42947 | 26924 ft | 475 kts | 289° |
| 2026-04-30 09:57 | 52.94490 | 3.37709 | 27219 ft | 476 kts | 289° |
| 2026-04-30 09:58 | 52.95503 | 3.32453 | 27426 ft | 479 kts | 288° |
| 2026-04-30 09:58 | 52.96515 | 3.27189 | 27732 ft | 481 kts | 288° |
| 2026-04-30 09:58 | 52.97516 | 3.21966 | 28060 ft | 480 kts | 288° |
| 2026-04-30 09:58 | 52.98530 | 3.16670 | 28309 ft | 482 kts | 288° |
| 2026-04-30 09:59 | 53.00552 | 3.06054 | 28883 ft | 485 kts | 288° |
| 2026-04-30 09:59 | 53.02592 | 2.95294 | 29289 ft | 491 kts | 288° |
| 2026-04-30 10:00 | 53.04638 | 2.84423 | 29922 ft | 491 kts | 287° |
| 2026-04-30 10:00 | 53.05658 | 2.78986 | 30157 ft | 493 kts | 287° |
| 2026-04-30 10:01 | 53.07683 | 2.68147 | 30563 ft | 497 kts | 287° |
| 2026-04-30 10:01 | 53.08706 | 2.62643 | 30834 ft | 497 kts | 287° |
| 2026-04-30 10:01 | 53.09724 | 2.57152 | 31053 ft | 498 kts | 287° |
| 2026-04-30 10:02 | 53.11501 | 2.46038 | 31748 ft | 493 kts | 280° |
| 2026-04-30 10:02 | 53.12050 | 2.40437 | 32127 ft | 489 kts | 277° |
| 2026-04-30 10:02 | 53.12490 | 2.34825 | 32344 ft | 489 kts | 276° |
| 2026-04-30 10:02 | 53.12891 | 2.29193 | 32546 ft | 490 kts | 276° |
| 2026-04-30 10:03 | 53.13290 | 2.23550 | 32819 ft | 489 kts | 276° |
| 2026-04-30 10:03 | 53.13695 | 2.18000 | 33111 ft | 488 kts | 277° |
| 2026-04-30 10:03 | 53.14118 | 2.12399 | 33461 ft | 486 kts | 277° |
| 2026-04-30 10:03 | 53.14551 | 2.06817 | 33662 ft | 486 kts | 277° |
| 2026-04-30 10:04 | 53.14991 | 2.01218 | 33834 ft | 488 kts | 277° |
| 2026-04-30 10:04 | 53.15433 | 1.95616 | 34128 ft | 486 kts | 277° |
| 2026-04-30 10:04 | 53.15873 | 1.90031 | 34391 ft | 485 kts | 277° |
| 2026-04-30 10:04 | 53.16309 | 1.84446 | 34603 ft | 484 kts | 277° |
| 2026-04-30 10:05 | 53.16735 | 1.78946 | 34798 ft | 484 kts | 277° |
| 2026-04-30 10:05 | 53.17163 | 1.73370 | 34984 ft | 484 kts | 277° |
| 2026-04-30 10:05 | 53.17589 | 1.67803 | 35186 ft | 483 kts | 277° |
| 2026-04-30 10:05 | 53.18011 | 1.62237 | 35372 ft | 483 kts | 276° |
| 2026-04-30 10:06 | 53.18430 | 1.56666 | 35555 ft | 483 kts | 276° |
| 2026-04-30 10:06 | 53.18844 | 1.51117 | 35741 ft | 482 kts | 276° |
| 2026-04-30 10:06 | 53.19256 | 1.45576 | 35981 ft | 480 kts | 276° |
| 2026-04-30 10:06 | 53.19664 | 1.40058 | 36183 ft | 479 kts | 276° |
| 2026-04-30 10:07 | 53.20065 | 1.34604 | 36365 ft | 479 kts | 276° |
| 2026-04-30 10:07 | 53.20466 | 1.29085 | 36514 ft | 479 kts | 276° |
| 2026-04-30 10:07 | 53.20864 | 1.23556 | 36639 ft | 479 kts | 276° |
| 2026-04-30 10:07 | 53.21259 | 1.18038 | 36811 ft | 479 kts | 276° |
| 2026-04-30 10:08 | 53.21652 | 1.12517 | 36984 ft | 478 kts | 276° |
| 2026-04-30 10:08 | 53.22035 | 1.07075 | 37150 ft | 478 kts | 275° |
| 2026-04-30 10:08 | 53.22419 | 1.01571 | 37293 ft | 477 kts | 275° |
| 2026-04-30 10:08 | 53.22799 | 0.96079 | 37519 ft | 475 kts | 275° |
| 2026-04-30 10:09 | 53.23177 | 0.90603 | 37708 ft | 474 kts | 275° |
| 2026-04-30 10:09 | 53.23553 | 0.85128 | 37854 ft | 474 kts | 275° |
| 2026-04-30 10:09 | 53.23928 | 0.79666 | 37973 ft | 474 kts | 275° |
| 2026-04-30 10:09 | 53.24303 | 0.74173 | 38110 ft | 474 kts | 275° |
| 2026-04-30 10:10 | 53.24673 | 0.68704 | 38241 ft | 474 kts | 275° |
| 2026-04-30 10:10 | 53.25041 | 0.63243 | 38349 ft | 474 kts | 275° |
| 2026-04-30 10:10 | 53.25408 | 0.57758 | 38351 ft | 475 kts | 275° |
| 2026-04-30 10:11 | 53.26131 | 0.46804 | 38353 ft | 474 kts | 274° |
| 2026-04-30 10:11 | 53.26836 | 0.35957 | 38341 ft | 472 kts | 275° |
| 2026-04-30 10:12 | 53.27532 | 0.25044 | 38342 ft | 471 kts | 275° |
| 2026-04-30 10:12 | 53.28220 | 0.14135 | 38333 ft | 472 kts | 274° |
| 2026-04-30 10:13 | 53.28914 | 0.03219 | 38333 ft | 471 kts | 275° |
| 2026-04-30 10:13 | 53.29923 | -0.07629 | 38325 ft | 472 kts | 278° |
| 2026-04-30 10:14 | 53.31091 | -0.18379 | 38324 ft | 472 kts | 279° |
| 2026-04-30 10:14 | 53.32810 | -0.34602 | 38323 ft | 472 kts | 278° |
| 2026-04-30 10:15 | 53.33918 | -0.45459 | 38320 ft | 472 kts | 278° |
| 2026-04-30 10:15 | 53.35002 | -0.56294 | 38323 ft | 472 kts | 278° |
| 2026-04-30 10:16 | 53.36065 | -0.67070 | 38320 ft | 472 kts | 278° |
| 2026-04-30 10:17 | 53.37657 | -0.83362 | 38315 ft | 472 kts | 278° |
| 2026-04-30 10:17 | 53.39227 | -0.99644 | 38312 ft | 472 kts | 277° |
| 2026-04-30 10:18 | 53.40252 | -1.10449 | 38309 ft | 473 kts | 277° |
| 2026-04-30 10:19 | 53.41802 | -1.26875 | 38303 ft | 475 kts | 277° |